Time;durP1;ratioP1;P1;durP2;ratioP2;P2;SDS_P1;SDS_P2;PMS_P1;PMS_P2;Temp;Humidity;BMP_temperature;BMP_pressure;BME280_temperature;BME280_humidity;BME280_pressure;Samples;Min_cycle;Max_cycle;Signal;HPM_P1;HPM_P2
2023/08/10 00:01:54;;;;;;;1999.90;999.90;;;13.60;99.90;;;;;;5075414;28;20109;-81
2023/08/10 00:04:19;;;;;;;1999.90;999.90;;;13.60;99.90;;;;;;5074216;28;20123;-81
2023/08/10 00:06:45;;;;;;;1999.90;999.90;;;13.60;99.90;;;;;;5057438;28;20052;-81
2023/08/10 00:09:11;;;;;;;1999.90;999.90;;;13.50;99.90;;;;;;5074532;28;20063;-82
2023/08/10 00:11:38;;;;;;;1999.90;999.90;;;13.50;99.90;;;;;;5056809;28;20098;-81
2023/08/10 00:14:04;;;;;;;1999.90;999.90;;;13.50;99.90;;;;;;5056832;28;20056;-81
2023/08/10 00:16:31;;;;;;;1999.90;999.90;;;13.50;99.90;;;;;;5074383;28;20051;-82
2023/08/10 00:18:57;;;;;;;1999.90;999.90;;;13.50;99.90;;;;;;5074823;28;20102;-81
2023/08/10 00:21:23;;;;;;;1999.90;999.90;;;13.40;99.90;;;;;;5074795;28;20048;-83
2023/08/10 00:23:48;;;;;;;1999.90;999.90;;;13.40;99.90;;;;;;5073929;28;20044;-81
2023/08/10 00:26:14;;;;;;;1999.90;999.90;;;13.40;99.90;;;;;;5040325;28;20044;-82
2023/08/10 00:28:40;;;;;;;1999.90;999.90;;;13.40;99.90;;;;;;5040410;28;20452;-81
2023/08/10 00:31:06;;;;;;;1999.90;999.90;;;13.30;99.90;;;;;;5073766;28;20045;-81
2023/08/10 00:33:32;;;;;;;1999.90;999.90;;;13.30;99.90;;;;;;5074231;28;20084;-81
2023/08/10 00:35:59;;;;;;;1999.90;999.90;;;13.30;99.90;;;;;;5056403;28;20053;-80
2023/08/10 00:38:26;;;;;;;1999.90;999.90;;;13.30;99.90;;;;;;5039739;28;20048;-81
2023/08/10 00:40:52;;;;;;;1999.90;999.90;;;13.20;99.90;;;;;;5073923;28;20385;-80
2023/08/10 00:43:18;;;;;;;1999.90;999.90;;;13.20;99.90;;;;;;5073833;28;20044;-81
2023/08/10 00:45:45;;;;;;;1999.90;999.90;;;13.20;99.90;;;;;;5073574;28;20040;-81
2023/08/10 00:48:10;;;;;;;1999.90;999.90;;;13.20;99.90;;;;;;5057000;28;20063;-82
2023/08/10 00:50:36;;;;;;;1999.90;999.90;;;13.10;99.90;;;;;;5039545;28;20434;-83
2023/08/10 00:53:02;;;;;;;1999.90;999.90;;;13.10;99.90;;;;;;5073752;28;20470;-82
2023/08/10 00:55:28;;;;;;;1999.90;999.90;;;13.10;99.90;;;;;;5073827;28;20044;-81
2023/08/10 00:57:54;;;;;;;1999.90;999.90;;;13.00;99.90;;;;;;5055770;28;20388;-81
2023/08/10 01:00:19;;;;;;;1999.90;999.90;;;13.10;99.90;;;;;;5022958;28;20040;-82
2023/08/10 01:02:45;;;;;;;1999.90;999.90;;;13.00;99.90;;;;;;5074186;28;20043;-81
2023/08/10 01:05:12;;;;;;;1999.90;999.90;;;13.00;99.90;;;;;;5074168;28;20044;-82
2023/08/10 01:07:50;;;;;;;1999.90;999.90;;;13.00;99.90;;;;;;5022807;28;20404;-81
2023/08/10 01:10:39;;;;;;;1999.90;999.90;;;13.00;99.90;;;;;;5056686;28;20053;-81
2023/08/10 01:13:17;;;;;;;1999.90;999.90;;;13.00;99.90;;;;;;5074111;28;20050;-82
2023/08/10 01:15:57;;;;;;;1999.90;999.90;;;13.00;99.90;;;;;;5055489;28;20074;-81
2023/08/10 01:18:27;;;;;;;1999.90;999.90;;;13.10;99.90;;;;;;5039554;28;20048;-82
2023/08/10 01:20:59;;;;;;;1999.90;999.90;;;13.10;99.90;;;;;;5073228;28;20539;-81
2023/08/10 01:23:47;;;;;;;1999.90;999.90;;;13.00;99.90;;;;;;5056019;28;20048;-80
2023/08/10 01:26:14;;;;;;;1999.90;999.90;;;13.00;99.90;;;;;;5074210;28;20075;-81
2023/08/10 01:28:41;;;;;;;1999.90;999.90;;;13.00;99.90;;;;;;5073368;28;20123;-81
2023/08/10 01:31:07;;;;;;;1999.90;999.90;;;13.00;99.90;;;;;;5073298;28;20045;-81
2023/08/10 01:33:33;;;;;;;1999.90;999.90;;;13.10;99.90;;;;;;5055270;28;20136;-81
2023/08/10 01:35:58;;;;;;;1999.90;999.90;;;13.10;99.90;;;;;;5073422;28;20144;-81
2023/08/10 01:38:24;;;;;;;1999.90;999.90;;;13.10;99.90;;;;;;5072944;28;20055;-81
2023/08/10 01:40:51;;;;;;;1999.90;999.90;;;13.00;99.90;;;;;;5073273;28;20083;-81
2023/08/10 01:43:17;;;;;;;1999.90;999.90;;;13.10;99.90;;;;;;5038846;28;20462;-80
2023/08/10 01:45:49;;;;;;;1999.90;999.90;;;13.00;99.90;;;;;;5055384;28;20090;-81
2023/08/10 01:48:32;;;;;;;1999.90;999.90;;;13.00;99.90;;;;;;5055891;28;20133;-81
2023/08/10 01:50:58;;;;;;;1999.90;999.90;;;13.00;99.90;;;;;;5073222;28;20044;-80
2023/08/10 01:53:30;;;;;;;1999.90;999.90;;;13.00;99.90;;;;;;5073703;28;20048;-82
2023/08/10 01:55:56;;;;;;;1999.90;999.90;;;13.00;99.90;;;;;;5073140;28;20041;-81
2023/08/10 01:58:22;;;;;;;1999.90;999.90;;;13.00;99.90;;;;;;5055112;28;20140;-81
2023/08/10 02:00:48;;;;;;;1999.90;999.90;;;12.90;99.90;;;;;;5073573;28;20123;-82
2023/08/10 02:03:14;;;;;;;1999.90;999.90;;;12.90;99.90;;;;;;5055385;28;20466;-81
2023/08/10 02:05:40;;;;;;;1999.90;999.90;;;12.80;99.90;;;;;;5055085;28;20144;-81
2023/08/10 02:08:07;;;;;;;1999.90;999.90;;;12.90;99.90;;;;;;5038789;28;20053;-80
2023/08/10 02:10:33;;;;;;;1999.90;999.90;;;13.00;99.90;;;;;;5074895;28;20184;-81
2023/08/10 02:12:59;;;;;;;1999.90;999.90;;;12.90;99.90;;;;;;5058994;28;20045;-81
2023/08/10 02:15:25;;;;;;;1999.90;999.90;;;13.00;99.90;;;;;;5076670;28;20068;-81
2023/08/10 02:17:51;;;;;;;1999.90;999.90;;;13.00;99.90;;;;;;5059008;28;20143;-81
2023/08/10 02:20:17;;;;;;;1999.90;999.90;;;13.00;99.90;;;;;;5076536;28;20045;-81
2023/08/10 02:22:49;;;;;;;1999.90;999.90;;;13.00;99.90;;;;;;5076561;28;20055;-81
2023/08/10 02:25:15;;;;;;;1999.90;999.90;;;13.00;99.90;;;;;;5058685;28;20103;-80
2023/08/10 02:27:41;;;;;;;1999.90;999.90;;;13.00;99.90;;;;;;5076753;28;20056;-81
2023/08/10 02:30:09;;;;;;;1999.90;999.90;;;13.00;99.90;;;;;;5076448;28;20387;-81
2023/08/10 02:32:35;;;;;;;1999.90;999.90;;;13.10;99.90;;;;;;5076605;28;20048;-80
2023/08/10 02:35:04;;;;;;;1999.90;999.90;;;13.00;99.90;;;;;;5041830;28;20058;-81
2023/08/10 02:37:30;;;;;;;1999.90;999.90;;;13.00;99.90;;;;;;5076212;28;20040;-81
2023/08/10 02:39:56;;;;;;;1999.90;999.90;;;13.00;99.90;;;;;;5058543;28;20052;-81
2023/08/10 02:42:21;;;;;;;1999.90;999.90;;;13.00;99.90;;;;;;5076256;28;20052;-81
2023/08/10 02:44:49;;;;;;;1999.90;999.90;;;13.00;99.90;;;;;;5058520;28;20101;-81
2023/08/10 02:47:15;;;;;;;1999.90;999.90;;;13.00;99.90;;;;;;5076704;28;20098;-81
2023/08/10 02:49:41;;;;;;;1999.90;999.90;;;13.00;99.90;;;;;;5058439;28;20044;-82
2023/08/10 02:52:06;;;;;;;1999.90;999.90;;;13.00;99.90;;;;;;5076102;28;20090;-82
2023/08/10 02:54:32;;;;;;;1999.90;999.90;;;13.00;99.90;;;;;;5058660;28;20371;-81
2023/08/10 02:56:58;;;;;;;1999.90;999.90;;;13.00;99.90;;;;;;5076276;28;20089;-81
2023/08/10 02:59:23;;;;;;;1999.90;999.90;;;13.00;99.90;;;;;;5076146;28;20036;-81
2023/08/10 03:01:50;;;;;;;1999.90;999.90;;;13.10;99.90;;;;;;5057902;28;20525;-82
2023/08/10 03:04:16;;;;;;;1999.90;999.90;;;13.10;99.90;;;;;;5075731;28;20052;-82
2023/08/10 03:06:42;;;;;;;1999.90;999.90;;;13.10;99.90;;;;;;5058169;28;20076;-81
2023/08/10 03:09:08;;;;;;;1999.90;999.90;;;13.10;99.90;;;;;;5058044;28;20048;-81
2023/08/10 03:11:34;;;;;;;1999.90;999.90;;;13.10;99.90;;;;;;5076145;28;20380;-81
2023/08/10 03:13:59;;;;;;;1999.90;999.90;;;13.10;99.90;;;;;;5058724;28;20094;-81
2023/08/10 03:16:25;;;;;;;1999.90;999.90;;;13.10;99.90;;;;;;5057849;28;20080;-81
2023/08/10 03:18:51;;;;;;;1999.90;999.90;;;13.10;99.90;;;;;;5075494;28;20052;-81
2023/08/10 03:21:17;;;;;;;1999.90;999.90;;;13.10;99.90;;;;;;5024134;28;20122;-82
2023/08/10 03:23:43;;;;;;;1999.90;999.90;;;13.20;99.90;;;;;;5057491;28;20479;-81
2023/08/10 03:26:10;;;;;;;1999.90;999.90;;;13.20;99.90;;;;;;5075132;28;20060;-82
2023/08/10 03:28:36;;;;;;;1999.90;999.90;;;13.20;99.90;;;;;;5057663;28;20086;-83
2023/08/10 03:31:02;;;;;;;1999.90;999.90;;;13.20;99.90;;;;;;5057878;28;20074;-82
2023/08/10 03:33:28;;;;;;;1999.90;999.90;;;13.20;99.90;;;;;;5075368;28;20047;-82
2023/08/10 03:35:54;;;;;;;1999.90;999.90;;;13.20;99.90;;;;;;5057850;28;20063;-81
2023/08/10 03:38:20;;;;;;;1999.90;999.90;;;13.20;99.90;;;;;;5057822;28;20052;-82
2023/08/10 03:40:46;;;;;;;1999.90;999.90;;;13.20;99.90;;;;;;5057912;28;20056;-82
2023/08/10 03:43:12;;;;;;;1999.90;999.90;;;13.30;99.90;;;;;;5057256;28;20041;-82
2023/08/10 03:45:37;;;;;;;1999.90;999.90;;;13.30;99.90;;;;;;5075749;28;20040;-82
2023/08/10 03:48:03;;;;;;;1999.90;999.90;;;13.30;99.90;;;;;;5057666;28;20040;-82
2023/08/10 03:50:29;;;;;;;1999.90;999.90;;;13.40;99.90;;;;;;5040789;28;20380;-82
2023/08/10 03:52:55;;;;;;;1999.90;999.90;;;13.40;99.90;;;;;;5074844;28;20051;-82
2023/08/10 03:55:21;;;;;;;1999.90;999.90;;;13.40;99.90;;;;;;5074692;28;20045;-83
2023/08/10 03:57:47;;;;;;;1999.90;999.90;;;13.40;99.90;;;;;;5057881;28;20131;-82
2023/08/10 04:00:14;;;;;;;1999.90;999.90;;;13.50;99.90;;;;;;5056845;28;20040;-82
2023/08/10 04:02:40;;;;;;;1999.90;999.90;;;13.50;99.90;;;;;;5075126;28;20048;-81
2023/08/10 04:05:06;;;;;;;1999.90;999.90;;;13.50;99.90;;;;;;5056921;28;20377;-82
2023/08/10 04:07:37;;;;;;;1999.90;999.90;;;13.50;99.90;;;;;;5074812;28;20044;-82
2023/08/10 04:10:05;;;;;;;1999.90;999.90;;;13.50;99.90;;;;;;5056977;28;20491;-82
2023/08/10 04:12:33;;;;;;;1999.90;999.90;;;13.50;99.90;;;;;;5074349;28;20094;-82
2023/08/10 04:14:59;;;;;;;1999.90;999.90;;;13.60;99.90;;;;;;5074668;28;20055;-81
2023/08/10 04:17:25;;;;;;;1999.90;999.90;;;13.60;99.90;;;;;;5074394;28;20470;-82
2023/08/10 04:19:50;;;;;;;1999.90;999.90;;;13.60;99.90;;;;;;5074234;28;20067;-83
2023/08/10 04:22:16;;;;;;;1999.90;999.90;;;13.60;99.90;;;;;;5057536;28;20427;-84
2023/08/10 04:24:42;;;;;;;1999.90;999.90;;;13.70;99.90;;;;;;5056333;28;20052;-83
2023/08/10 04:27:07;;;;;;;1999.90;999.90;;;13.60;99.90;;;;;;5057408;28;20055;-82
2023/08/10 04:29:33;;;;;;;1999.90;999.90;;;13.60;99.90;;;;;;5056223;28;20045;-83
2023/08/10 04:31:58;;;;;;;1999.90;999.90;;;13.70;99.90;;;;;;5056263;28;20040;-83
2023/08/10 04:34:24;;;;;;;1999.90;999.90;;;13.70;99.90;;;;;;5055590;28;20045;-82
2023/08/10 04:36:50;;;;;;;1999.90;999.90;;;13.70;99.90;;;;;;5056840;28;20425;-82
2023/08/10 04:39:16;;;;;;;1999.90;999.90;;;13.70;99.90;;;;;;5056181;28;20056;-82
2023/08/10 04:41:42;;;;;;;1999.90;999.90;;;13.70;99.90;;;;;;5039821;28;20045;-83
2023/08/10 04:44:08;;;;;;;1999.90;999.90;;;13.80;99.90;;;;;;5057097;28;20166;-84
2023/08/10 04:46:34;;;;;;;1999.90;999.90;;;13.80;99.90;;;;;;5073924;28;20491;-83
2023/08/10 04:49:00;;;;;;;1999.90;999.90;;;13.80;99.90;;;;;;5073967;28;20052;-82
2023/08/10 04:51:26;;;;;;;1999.90;999.90;;;13.80;99.90;;;;;;5073871;28;20131;-82
2023/08/10 04:53:51;;;;;;;1999.90;999.90;;;13.80;99.90;;;;;;5073836;28;20132;-82
2023/08/10 04:56:17;;;;;;;1999.90;999.90;;;13.90;99.90;;;;;;5056031;28;20044;-83
2023/08/10 04:58:43;;;;;;;1999.90;999.90;;;13.90;99.90;;;;;;5073425;28;20049;-83
2023/08/10 05:01:09;;;;;;;1999.90;999.90;;;13.90;99.90;;;;;;5073687;28;20095;-83
2023/08/10 05:03:35;;;;;;;1999.90;999.90;;;13.90;99.90;;;;;;5074303;28;20158;-83
2023/08/10 05:06:02;;;;;;;1999.90;999.90;;;13.90;99.90;;;;;;5074149;28;20106;-82
2023/08/10 05:08:27;;;;;;;1999.90;999.90;;;14.00;99.90;;;;;;5073839;28;20438;-84
2023/08/10 05:10:53;;;;;;;1999.90;999.90;;;14.00;99.90;;;;;;5073525;28;20078;-84
2023/08/10 05:13:19;;;;;;;1999.90;999.90;;;14.10;99.90;;;;;;5040107;28;20045;-84
2023/08/10 05:15:45;;;;;;;1999.90;999.90;;;14.10;99.90;;;;;;5039566;28;20385;-82
2023/08/10 05:18:10;;;;;;;1999.90;999.90;;;14.10;99.90;;;;;;5055832;28;20040;-83
2023/08/10 05:20:37;;;;;;;1999.90;999.90;;;14.20;99.90;;;;;;5055531;28;20131;-83
2023/08/10 05:23:03;;;;;;;1999.90;999.90;;;14.20;99.90;;;;;;5055504;28;20044;-82
2023/08/10 05:25:29;;;;;;;1999.90;999.90;;;14.20;99.90;;;;;;5073544;28;20110;-82
2023/08/10 05:27:54;;;;;;;1999.90;999.90;;;14.20;99.90;;;;;;5073938;28;20043;-82
2023/08/10 05:30:20;;;;;;;1999.90;999.90;;;14.20;99.90;;;;;;5056567;28;20044;-82
2023/08/10 05:32:46;;;;;;;1999.90;999.90;;;14.30;99.90;;;;;;5055620;28;20071;-83
2023/08/10 05:35:13;;;;;;;1999.90;999.90;;;14.30;99.90;;;;;;5055652;28;20082;-82
2023/08/10 05:37:39;;;;;;;1999.90;999.90;;;14.30;99.90;;;;;;5073338;28;20052;-82
2023/08/10 05:40:11;;;;;;;1999.90;999.90;;;14.30;99.90;;;;;;5055771;28;20055;-82
2023/08/10 05:42:39;;;;;;;1999.90;999.90;;;14.40;99.90;;;;;;5073847;28;20456;-82
2023/08/10 05:45:06;;;;;;;1999.90;999.90;;;14.40;99.90;;;;;;5075319;28;20093;-82
2023/08/10 05:47:33;;;;;;;1999.90;999.90;;;14.40;99.90;;;;;;5059691;28;20488;-82
2023/08/10 05:49:59;;;;;;;1999.90;999.90;;;14.50;99.90;;;;;;5077818;28;20041;-83
2023/08/10 05:52:25;;;;;;;1999.90;999.90;;;14.50;99.90;;;;;;5077180;28;20055;-83
2023/08/10 05:54:50;;;;;;;1999.90;999.90;;;14.50;99.90;;;;;;5026449;28;20052;-83
2023/08/10 05:57:16;;;;;;;1999.90;999.90;;;14.60;99.90;;;;;;5077305;28;20052;-82
2023/08/10 05:59:42;;;;;;;1999.90;999.90;;;14.60;99.90;;;;;;5059747;28;20041;-82
2023/08/10 06:02:07;;;;;;;1999.90;999.90;;;14.60;99.90;;;;;;5077004;28;20045;-82
2023/08/10 06:04:34;;;;;;;1999.90;999.90;;;14.60;99.90;;;;;;5059010;28;20044;-83
2023/08/10 06:06:59;;;;;;;1999.90;999.90;;;14.70;99.90;;;;;;5042647;28;20372;-82
2023/08/10 06:09:25;;;;;;;1999.90;999.90;;;14.70;99.90;;;;;;5058990;28;20036;-81
2023/08/10 06:11:51;;;;;;;1999.90;999.90;;;14.80;99.90;;;;;;5059513;28;20392;-82
2023/08/10 06:14:17;;;;;;;1999.90;999.90;;;14.80;99.90;;;;;;5077049;28;20484;-82
2023/08/10 06:16:43;;;;;;;1999.90;999.90;;;14.90;99.90;;;;;;5076893;28;20048;-83
2023/08/10 06:19:09;;;;;;;1999.90;999.90;;;14.90;99.90;;;;;;5076542;28;20059;-82
2023/08/10 06:21:35;;;;;;;1999.90;999.90;;;14.90;99.90;;;;;;5059058;28;20037;-83
2023/08/10 06:24:01;;;;;;;1999.90;999.90;;;14.90;99.90;;;;;;5077034;28;20056;-82
2023/08/10 06:26:26;;;;;;;1999.90;999.90;;;15.00;99.90;;;;;;5076575;28;20092;-83
2023/08/10 06:28:52;;;;;;;1999.90;999.90;;;15.00;99.90;;;;;;5058903;28;20048;-83
2023/08/10 06:31:18;;;;;;;1999.90;999.90;;;15.00;99.90;;;;;;5076683;28;20460;-82
2023/08/10 06:33:44;;;;;;;1999.90;999.90;;;15.10;99.90;;;;;;5058447;28;20078;-81
2023/08/10 06:36:11;;;;;;;1999.90;999.90;;;15.10;99.90;;;;;;5059516;28;20052;-82
2023/08/10 06:38:37;;;;;;;1999.90;999.90;;;15.10;99.90;;;;;;5076377;28;20052;-81
2023/08/10 06:41:03;;;;;;;1999.90;999.90;;;15.10;99.90;;;;;;5058258;28;20084;-82
2023/08/10 06:43:29;;;;;;;1999.90;999.90;;;15.10;99.90;;;;;;5058905;28;20420;-82
2023/08/10 06:45:55;;;;;;;1999.90;999.90;;;15.10;99.90;;;;;;5076222;28;20048;-82
2023/08/10 06:48:21;;;;;;;1999.90;999.90;;;15.10;99.90;;;;;;5058473;28;20055;-81
2023/08/10 06:50:46;;;;;;;1999.90;999.90;;;15.10;99.90;;;;;;5058455;28;20044;-81
2023/08/10 06:53:12;;;;;;;1999.90;999.90;;;15.10;99.90;;;;;;5076365;28;20496;-82
2023/08/10 06:55:38;;;;;;;1999.90;999.90;;;15.10;99.90;;;;;;5058120;28;20143;-82
2023/08/10 06:58:05;;;;;;;1999.90;999.90;;;15.10;99.90;;;;;;5075728;28;20093;-82
2023/08/10 07:00:31;;;;;;;1999.90;999.90;;;15.10;99.90;;;;;;5076364;28;20148;-81
2023/08/10 07:02:58;;;;;;;1999.90;999.90;;;15.20;99.90;;;;;;5041377;28;20407;-82
2023/08/10 07:05:26;;;;;;;1999.90;999.90;;;15.20;99.90;;;;;;5058146;28;20052;-81
2023/08/10 07:07:52;;;;;;;1999.90;999.90;;;15.20;99.90;;;;;;5075907;28;20391;-81
2023/08/10 07:10:18;;;;;;;1999.90;999.90;;;15.20;99.90;;;;;;5075864;28;20040;-82
2023/08/10 07:12:45;;;;;;;1999.90;999.90;;;15.30;99.90;;;;;;5058341;28;20391;-82
2023/08/10 07:15:11;;;;;;;1999.90;999.90;;;15.30;99.90;;;;;;5076330;28;20052;-80
2023/08/10 07:17:37;;;;;;;1999.90;999.90;;;15.40;99.90;;;;;;5057992;28;20049;-79
2023/08/10 07:20:05;;;;;;;1999.90;999.90;;;15.40;99.90;;;;;;5075295;28;20492;-80
2023/08/10 07:22:31;;;;;;;1999.90;999.90;;;15.50;99.90;;;;;;5075615;28;20136;-79
2023/08/10 07:25:00;;;;;;;1999.90;999.90;;;15.50;99.90;;;;;;5057947;28;20084;-80
2023/08/10 07:27:26;;;;;;;1999.90;999.90;;;15.50;99.90;;;;;;5057943;28;20084;-79
2023/08/10 07:29:51;;;;;;;1999.90;999.90;;;15.60;99.90;;;;;;5075580;28;20094;-80
2023/08/10 07:32:19;;;;;;;1999.90;999.90;;;15.60;99.90;;;;;;5057648;28;20048;-80
2023/08/10 07:34:45;;;;;;;1999.90;999.90;;;15.70;99.90;;;;;;5075488;28;20393;-80
2023/08/10 07:37:10;;;;;;;1999.90;999.90;;;15.70;99.90;;;;;;5075383;28;20086;-78
2023/08/10 07:39:36;;;;;;;1999.90;999.90;;;15.80;99.90;;;;;;5024716;28;20060;-78
2023/08/10 07:42:02;;;;;;;1999.90;999.90;;;15.80;99.90;;;;;;5075239;28;20384;-78
2023/08/10 07:44:28;;;;;;;1999.90;999.90;;;15.80;99.90;;;;;;5057580;28;20052;-77
2023/08/10 07:46:54;;;;;;;1999.90;999.90;;;15.90;99.90;;;;;;5075154;28;20051;-77
2023/08/10 07:49:20;;;;;;;1999.90;999.90;;;15.90;99.90;;;;;;5057390;28;20135;-77
2023/08/10 07:51:47;;;;;;;1999.90;999.90;;;15.90;99.90;;;;;;5075146;28;20252;-76
2023/08/10 07:54:16;;;;;;;1999.90;999.90;;;15.90;99.90;;;;;;5075649;28;20056;-77
2023/08/10 07:56:42;;;;;;;1999.90;999.90;;;15.90;99.90;;;;;;5057101;28;20044;-77
2023/08/10 07:59:08;;;;;;;1999.90;999.90;;;15.90;99.90;;;;;;5074870;28;20084;-77
2023/08/10 08:01:33;;;;;;;1999.90;999.90;;;15.90;99.90;;;;;;5075327;28;20178;-78
2023/08/10 08:03:59;;;;;;;1999.90;999.90;;;16.00;99.90;;;;;;5056955;28;20051;-78
2023/08/10 08:06:25;;;;;;;1999.90;999.90;;;16.00;99.90;;;;;;5074852;28;20052;-79
2023/08/10 08:08:51;;;;;;;1999.90;999.90;;;16.10;99.90;;;;;;5057064;28;20472;-79
2023/08/10 08:11:17;;;;;;;1999.90;999.90;;;16.10;99.90;;;;;;5074773;28;20074;-78
2023/08/10 08:13:42;;;;;;;1999.90;999.90;;;16.10;99.90;;;;;;5074743;28;20478;-79
2023/08/10 08:16:09;;;;;;;1999.90;999.90;;;16.20;99.90;;;;;;5057053;28;20050;-79
2023/08/10 08:18:45;;;;;;;1999.90;999.90;;;16.30;99.90;;;;;;5074664;28;20048;-79
2023/08/10 08:21:20;;;;;;;1999.90;999.90;;;16.40;99.90;;;;;;5056654;28;20040;-79
2023/08/10 08:23:46;;;;;;;1999.90;999.90;;;16.50;99.90;;;;;;5056729;28;20132;-79
2023/08/10 08:26:14;;;;;;;1999.90;999.90;;;16.60;99.90;;;;;;5075635;28;20361;-79
2023/08/10 08:28:40;;;;;;;1999.90;999.90;;;16.70;99.90;;;;;;5056503;28;20127;-79
2023/08/10 08:31:06;;;;;;;1999.90;999.90;;;16.70;99.90;;;;;;5074013;28;20051;-79
2023/08/10 08:33:33;;;;;;;1999.90;999.90;;;16.80;99.90;;;;;;5056558;28;20044;-78
2023/08/10 08:35:59;;;;;;;1999.90;999.90;;;16.80;99.90;;;;;;5056201;28;20059;-79
2023/08/10 08:38:25;;;;;;;1999.90;999.90;;;16.80;99.90;;;;;;5074215;28;20048;-79
2023/08/10 08:40:53;;;;;;;1999.90;999.90;;;16.80;99.90;;;;;;5056300;28;20392;-78
2023/08/10 08:43:19;;;;;;;1999.90;999.90;;;16.80;99.90;;;;;;5074041;28;20059;-77
2023/08/10 08:45:45;;;;;;;1999.90;999.90;;;16.90;99.90;;;;;;5074852;28;20040;-78
2023/08/10 08:48:14;;;;;;;1999.90;999.90;;;17.00;99.90;;;;;;5056295;28;20468;-78
2023/08/10 08:50:40;;;;;;;1999.90;999.90;;;17.00;99.90;;;;;;5056570;28;20052;-78
2023/08/10 08:53:10;;;;;;;1999.90;999.90;;;17.10;99.90;;;;;;5039419;28;20460;-78
2023/08/10 08:55:37;;;;;;;1999.90;999.90;;;17.20;99.90;;;;;;5057102;28;20055;-78
2023/08/10 08:58:03;;;;;;;1999.90;999.90;;;17.30;99.90;;;;;;5073550;28;20484;-79
2023/08/10 09:00:31;;;;;;;1999.90;999.90;;;17.30;99.90;;;;;;5055920;28;20041;-79
2023/08/10 09:02:58;;;;;;;1999.90;999.90;;;17.40;99.90;;;;;;5055855;28;20480;-78
2023/08/10 09:05:24;;;;;;;1999.90;999.90;;;17.50;99.90;;;;;;5073699;28;20040;-80
2023/08/10 09:07:51;;;;;;;1999.90;999.90;;;17.50;99.90;;;;;;5073865;28;20123;-78
2023/08/10 09:10:18;;;;;;;1999.90;999.90;;;17.60;99.90;;;;;;5074234;28;20105;-79
2023/08/10 09:12:44;;;;;;;1999.90;999.90;;;17.70;99.90;;;;;;5055650;28;20082;-79
2023/08/10 09:15:12;;;;;;;1999.90;999.90;;;17.70;99.90;;;;;;5039359;28;20190;-78
2023/08/10 09:17:47;;;;;;;1999.90;999.90;;;17.70;99.90;;;;;;5055915;28;20048;-77
2023/08/10 09:20:27;;;;;;;1999.90;999.90;;;17.70;99.90;;;;;;5055657;28;20079;-78
2023/08/10 09:22:55;;;;;;;1999.90;999.90;;;17.80;99.90;;;;;;5073535;28;20055;-78
2023/08/10 09:25:22;;;;;;;1999.90;999.90;;;17.80;99.90;;;;;;5073686;28;20053;-78
2023/08/10 09:27:49;;;;;;;1999.90;999.90;;;17.90;99.90;;;;;;5074055;28;20050;-79
2023/08/10 09:30:16;;;;;;;1999.90;999.90;;;17.90;99.90;;;;;;5055576;28;20045;-79
2023/08/10 09:32:42;;;;;;;1999.90;999.90;;;17.80;99.90;;;;;;5055807;28;20056;-80
2023/08/10 09:35:14;;;;;;;1999.90;999.90;;;17.90;99.90;;;;;;5073418;28;20051;-79
2023/08/10 09:37:41;;;;;;;1999.90;999.90;;;17.90;99.90;;;;;;5073622;28;20121;-78
2023/08/10 09:40:10;;;;;;;1999.90;999.90;;;17.90;99.90;;;;;;5073565;28;20040;-79
2023/08/10 09:42:38;;;;;;;1999.90;999.90;;;17.90;99.90;;;;;;5073034;28;20048;-78
2023/08/10 09:45:12;;;;;;;1999.90;999.90;;;18.00;99.90;;;;;;5073906;28;20403;-79
2023/08/10 09:47:40;;;;;;;1999.90;999.90;;;18.70;99.90;;;;;;5056632;28;20045;-77
2023/08/10 09:50:09;;;;;;;1999.90;999.90;;;18.00;99.90;;;;;;5055683;28;20059;-77
2023/08/10 09:52:36;;;;;;;1999.90;999.90;;;18.10;99.90;;;;;;5055393;28;20365;-77
2023/08/10 09:55:04;;;;;;;1999.90;999.90;;;18.10;99.90;;;;;;5073357;28;20045;-78
2023/08/10 09:57:30;;;;;;;1999.90;999.90;;;18.10;99.90;;;;;;5055530;28;20047;-78
2023/08/10 09:59:56;;;;;;;1999.90;999.90;;;18.10;99.90;;;;;;5055428;28;20182;-78
2023/08/10 10:02:23;;;;;;;1999.90;999.90;;;18.10;99.90;;;;;;5073258;28;20173;-77
2023/08/10 10:04:50;;;;;;;1999.90;999.90;;;18.20;99.90;;;;;;5073135;28;20471;-79
2023/08/10 10:07:28;;;;;;;1999.90;999.90;;;18.20;99.90;;;;;;5072910;28;20063;-80
2023/08/10 10:09:57;;;;;;;1999.90;999.90;;;18.30;99.90;;;;;;5073246;28;20033;-80
2023/08/10 10:12:24;;;;;;;1999.90;999.90;;;18.30;99.90;;;;;;5073148;28;20049;-78
2023/08/10 10:14:51;;;;;;;1999.90;999.90;;;18.30;99.90;;;;;;5038959;28;20056;-76
2023/08/10 10:17:18;;;;;;;1999.90;999.90;;;18.30;99.90;;;;;;5073846;28;20048;-77
2023/08/10 10:19:45;;;;;;;1999.90;999.90;;;18.40;99.90;;;;;;5055431;28;20451;-77
2023/08/10 10:22:11;;;;;;;1999.90;999.90;;;18.40;99.90;;;;;;5072965;28;20044;-77
2023/08/10 10:24:41;;;;;;;1999.90;999.90;;;18.40;99.90;;;;;;5072735;28;20045;-79
2023/08/10 10:27:11;;;;;;;1999.90;999.90;;;18.40;99.90;;;;;;5072907;28;20561;-77
2023/08/10 10:29:52;;;;;;;1999.90;999.90;;;18.50;99.90;;;;;;5073138;28;20041;-76
2023/08/10 10:32:22;;;;;;;1999.90;999.90;;;18.50;99.90;;;;;;5057528;28;20044;-76
2023/08/10 10:34:51;;;;;;;1999.90;999.90;;;18.50;99.90;;;;;;5076345;28;20546;-76
2023/08/10 10:37:35;;;;;;;1999.90;999.90;;;18.60;99.90;;;;;;5042391;28;20494;-76
2023/08/10 10:40:18;;;;;;;1999.90;999.90;;;18.60;99.90;;;;;;5076337;28;20365;-76
2023/08/10 10:43:09;;;;;;;1999.90;999.90;;;18.60;99.90;;;;;;5076354;28;20113;-76
2023/08/10 10:45:42;;;;;;;1999.90;999.90;;;18.60;99.90;;;;;;5076192;28;20122;-77
2023/08/10 10:48:12;;;;;;;1999.90;999.90;;;18.60;99.90;;;;;;5076377;28;20048;-76
2023/08/10 10:50:39;;;;;;;1999.90;999.90;;;18.70;99.90;;;;;;5085617;28;20040;-76
2023/08/10 10:53:15;;;;;;;1999.90;999.90;;;18.70;99.90;;;;;;5076295;28;20048;-76
2023/08/10 10:55:43;;;;;;;1999.90;999.90;;;18.70;99.90;;;;;;5076506;28;20109;-76
2023/08/10 10:58:14;;;;;;;1999.90;999.90;;;18.70;99.90;;;;;;5076106;28;20088;-76
2023/08/10 11:00:41;;;;;;;1999.90;999.90;;;18.70;99.90;;;;;;5075911;28;20048;-76
2023/08/10 11:03:08;;;;;;;1999.90;999.90;;;18.70;99.90;;;;;;5058372;28;20499;-75
2023/08/10 11:05:34;;;;;;;1999.90;999.90;;;18.80;99.90;;;;;;5075974;28;20049;-76
2023/08/10 11:08:03;;;;;;;1999.90;999.90;;;18.80;99.90;;;;;;5057797;28;20127;-76
2023/08/10 11:10:37;;;;;;;1999.90;999.90;;;18.90;99.90;;;;;;5058993;28;20388;-76
2023/08/10 11:13:12;;;;;;;1999.90;999.90;;;18.90;99.90;;;;;;5076368;28;20082;-77
2023/08/10 11:15:38;;;;;;;1999.90;999.90;;;18.90;99.90;;;;;;5076517;28;20045;-77
2023/08/10 11:18:12;;;;;;;1999.90;999.90;;;19.00;99.90;;;;;;5042174;28;20361;-76
2023/08/10 11:20:48;;;;;;;1999.90;999.90;;;19.10;99.90;;;;;;5025320;28;20048;-76
2023/08/10 11:23:14;;;;;;;1999.90;999.90;;;19.10;99.90;;;;;;5058807;28;20045;-77
2023/08/10 11:25:49;;;;;;;1999.90;999.90;;;19.10;99.90;;;;;;5057868;28;20057;-78
2023/08/10 11:28:18;;;;;;;1999.90;999.90;;;19.10;99.90;;;;;;5075915;28;20464;-77
2023/08/10 11:30:45;;;;;;;1999.90;999.90;;;19.00;99.90;;;;;;5057895;28;20052;-77
2023/08/10 11:33:11;;;;;;;1999.90;999.90;;;19.00;99.90;;;;;;5075423;28;20377;-76
2023/08/10 11:35:37;;;;;;;1999.90;999.90;;;19.10;99.90;;;;;;5075345;28;20132;-76
2023/08/10 11:38:05;;;;;;;1999.90;999.90;;;19.10;99.90;;;;;;5075605;28;20127;-77
2023/08/10 11:40:30;;;;;;;1999.90;999.90;;;19.10;99.90;;;;;;5075246;28;20395;-75
2023/08/10 11:43:10;;;;;;;1999.90;999.90;;;19.10;99.90;;;;;;5057987;28;20094;-77
2023/08/10 11:45:37;;;;;;;1999.90;999.90;;;19.10;99.90;;;;;;5075517;28;20408;-76
2023/08/10 11:48:07;;;;;;;1999.90;999.90;;;19.10;99.90;;;;;;5075224;28;20087;-78
2023/08/10 11:50:33;;;;;;;1999.90;999.90;;;19.10;99.90;;;;;;5057448;28;20044;-77
2023/08/10 11:53:16;;;;;;;1999.90;999.90;;;19.10;99.90;;;;;;5075098;28;20100;-76
2023/08/10 11:55:43;;;;;;;1999.90;999.90;;;19.20;99.90;;;;;;5075985;28;20048;-77
2023/08/10 11:58:10;;;;;;;1999.90;999.90;;;19.20;99.90;;;;;;5077437;28;20109;-77
2023/08/10 12:00:38;;;;;;;1999.90;999.90;;;19.30;99.90;;;;;;5075114;28;20526;-77